Time;durP1;ratioP1;P1;durP2;ratioP2;P2;SDS_P1;SDS_P2;PMS_P1;PMS_P2;Temp;Humidity;BMP_temperature;BMP_pressure;BME280_temperature;BME280_humidity;BME280_pressure;Samples;Min_cycle;Max_cycle;Signal;HPM_P1;HPM_P2
2021/07/06 00:01:58;;;;;;;22.10;14.98;;;;;;;16.17;86.37;100442.59;4839973;29;20493;-91
2021/07/06 00:04:23;;;;;;;22.08;14.88;;;;;;;16.19;86.11;100437.97;4839597;29;20049;-92
2021/07/06 00:06:50;;;;;;;20.25;13.32;;;;;;;16.16;86.65;100440.06;4824149;29;20041;-91
2021/07/06 00:09:16;;;;;;;22.60;14.18;;;;;;;16.14;86.74;100436.66;4840340;29;20033;-92
2021/07/06 00:11:43;;;;;;;20.15;14.45;;;;;;;16.15;86.51;100433.88;4839578;29;20559;-92
2021/07/06 00:14:08;;;;;;;18.15;14.38;;;;;;;16.13;86.57;100425.13;4840028;29;20056;-93
2021/07/06 00:16:36;;;;;;;20.67;14.77;;;;;;;16.24;86.49;100429.56;4838488;29;20045;-93
2021/07/06 00:19:02;;;;;;;22.08;15.88;;;;;;;16.27;86.66;100420.50;4824457;29;20025;-93
2021/07/06 00:21:28;;;;;;;21.50;15.43;;;;;;;16.28;86.52;100417.69;4838752;29;20045;-92
2021/07/06 00:23:53;;;;;;;20.95;15.50;;;;;;;16.27;nan;100423.16;4857435;29;20060;-89
2021/07/06 00:26:22;;;;;;;24.08;15.98;;;;;;;16.25;86.85;100415.28;4842501;29;20064;-91
2021/07/06 00:28:48;;;;;;;27.00;17.38;;;;;;;16.22;86.73;100412.88;5004162;24;20121;-92
2021/07/06 00:31:16;;;;;;;23.42;16.35;;;;;;;16.23;86.93;100411.03;4850597;29;20044;-92
2021/07/06 00:33:42;;;;;;;26.73;16.15;;;;;;;16.25;86.97;100395.75;4884057;24;20447;-93
2021/07/06 00:36:09;;;;;;;23.83;15.85;;;;;;;16.26;86.80;100392.97;4860479;29;20037;-90
2021/07/06 00:38:34;;;;;;;20.80;14.60;;;;;;;16.24;86.82;100397.56;4872859;29;20048;-90
2021/07/06 00:41:00;;;;;;;21.00;14.68;;;;;;;16.23;87.26;100390.53;4889608;29;20033;-91
2021/07/06 00:43:28;;;;;;;21.73;15.85;;;;;;;16.19;87.18;100386.47;4858805;29;20037;-92
2021/07/06 00:45:58;;;;;;;21.88;15.13;;;;;;;16.18;87.32;100393.59;4858877;29;20035;-92
2021/07/06 00:48:24;;;;;;;26.45;16.58;;;;;;;16.20;87.28;100372.13;4876863;29;20067;-92
2021/07/06 00:51:34;;;;;;;26.23;17.25;;;;;;;16.23;87.35;100374.53;4850122;29;20059;-91
2021/07/06 00:54:30;;;;;;;24.05;15.75;;;;;;;16.30;86.97;100365.03;4907042;29;20013;-92
2021/07/06 00:56:56;;;;;;;24.77;15.80;;;;;;;16.29;87.05;100354.50;4916602;29;20017;-91
2021/07/06 00:59:23;;;;;;;22.95;15.90;;;;;;;16.30;86.79;100349.03;4907277;29;20044;-90
2021/07/06 01:01:49;;;;;;;21.80;15.50;;;;;;;16.29;86.41;100344.69;4890951;29;20032;-90
2021/07/06 01:04:15;;;;;;;21.92;15.05;;;;;;;16.36;86.34;100344.16;4890887;29;20037;-92
2021/07/06 01:06:41;;;;;;;23.73;15.07;;;;;;;16.36;86.21;100344.16;4876375;29;20027;-89
2021/07/06 01:09:07;;;;;;;20.65;14.45;;;;;;;16.40;86.07;100337.56;4875070;29;20120;-92
2021/07/06 01:11:34;;;;;;;23.25;15.00;;;;;;;16.45;85.90;100330.00;4887735;29;20043;-91
2021/07/06 01:14:00;;;;;;;21.33;15.20;;;;;;;16.42;85.82;100325.78;4891130;29;20441;-92
2021/07/06 01:16:30;;;;;;;21.63;15.65;;;;;;;16.46;85.82;100328.19;4891476;29;20039;-90
2021/07/06 01:18:58;;;;;;;20.65;14.73;;;;;;;16.43;85.93;100330.16;4874572;29;20029;-89
2021/07/06 01:21:24;;;;;;;21.98;14.80;;;;;;;16.40;85.99;100325.06;4859996;29;20058;-92
2021/07/06 01:23:49;;;;;;;24.55;16.20;;;;;;;16.46;85.93;100322.88;4891027;29;20084;-90
2021/07/06 01:26:19;;;;;;;25.67;17.00;;;;;;;16.46;86.22;100312.19;4875337;29;20036;-90
2021/07/06 01:28:44;;;;;;;24.42;16.25;;;;;;;16.47;85.99;100313.88;4891299;29;20033;-91
2021/07/06 01:31:23;;;;;;;25.35;16.10;;;;;;;16.38;86.17;100318.19;4876942;29;20120;-92
2021/07/06 01:43:25;;;;;;;18.50;13.98;;;;;;;16.52;86.05;100291.13;3843185;23;20083;-93
2021/07/06 01:46:23;;;;;;;21.83;14.65;;;;;;;16.54;86.17;100283.00;4869634;29;20041;-94
2021/07/06 01:50:05;;;;;;;;;;;;;;;;;;;;;
2021/07/06 01:59:09;;;;;;;18.77;14.10;;;;;;;16.59;86.79;100258.56;5653672;23;20037;-93
2021/07/06 02:06:18;;;;;;;18.38;13.38;;;;;;;16.74;86.18;100240.38;4813858;29;20062;-92
2021/07/06 02:09:12;;;;;;;15.98;11.30;;;;;;;16.75;85.47;100239.38;4791964;29;20050;-93
2021/07/06 02:11:42;;;;;;;20.15;12.40;;;;;;;16.84;85.15;100227.00;4802551;29;20043;-94
2021/07/06 02:14:25;;;;;;;18.25;13.18;;;;;;;16.99;84.94;100220.28;4819047;29;20038;-92
2021/07/06 02:16:57;;;;;;;16.20;12.32;;;;;;;16.94;85.10;100203.88;4819382;29;20039;-91
2021/07/06 02:19:30;;;;;;;16.08;11.68;;;;;;;16.87;85.23;100202.72;4828822;29;20031;-93
2021/07/06 02:21:57;;;;;;;22.20;13.73;;;;;;;16.90;85.39;100189.06;4816111;29;20054;-93
2021/07/06 02:24:39;;;;;;;20.60;14.88;;;;;;;16.76;86.14;100190.31;4800096;29;20121;-93
2021/07/06 02:27:17;;;;;;;24.48;16.10;;;;;;;16.78;86.31;100188.38;4821202;29;20588;-93
2021/07/06 02:29:50;;;;;;;18.90;14.50;;;;;;;16.73;86.20;100180.78;4794554;29;20515;-91
2021/07/06 02:32:35;;;;;;;18.20;13.55;;;;;;;16.78;86.19;100185.69;4805416;29;20125;-92
2021/07/06 02:35:27;;;;;;;18.05;12.75;;;;;;;16.77;85.91;100186.69;4786159;29;20078;-93
2021/07/06 02:37:59;;;;;;;17.20;12.50;;;;;;;16.84;85.67;100189.63;4815876;29;20073;-93
2021/07/06 02:40:44;;;;;;;16.13;11.73;;;;;;;16.81;85.65;100166.75;4814521;29;20046;-92
2021/07/06 02:43:09;;;;;;;15.55;10.82;;;;;;;16.84;85.46;100165.59;4791469;29;20564;-90
2021/07/06 02:45:35;;;;;;;11.90;9.32;;;;;;;16.87;85.32;100154.66;4781778;29;20031;-90
2021/07/06 02:48:05;;;;;;;11.93;9.80;;;;;;;16.84;85.56;100154.94;4812279;29;20080;-92
2021/07/06 02:50:32;;;;;;;11.60;9.48;;;;;;;16.73;85.95;100150.56;4799123;29;20069;-91
2021/07/06 02:53:08;;;;;;;9.20;7.05;;;;;;;16.85;84.87;100146.78;4800190;29;20047;-91
2021/07/06 02:55:38;;;;;;;10.57;8.70;;;;;;;16.91;85.01;100132.88;4786243;29;20046;-91
2021/07/06 02:58:20;;;;;;;9.73;8.43;;;;;;;16.94;84.93;100129.91;4800407;29;20316;-90
2021/07/06 03:00:48;;;;;;;12.60;8.30;;;;;;;16.97;84.76;100126.13;4840721;29;20046;-92
2021/07/06 03:03:25;;;;;;;9.60;7.95;;;;;;;16.94;84.85;100121.06;4807598;29;20050;-93
2021/07/06 03:05:52;;;;;;;8.40;7.47;;;;;;;16.89;85.00;100124.16;4822794;29;20041;-92
2021/07/06 03:08:18;;;;;;;10.65;7.18;;;;;;;16.87;85.27;100106.59;4806789;29;20049;-92
2021/07/06 03:10:45;;;;;;;8.88;7.05;;;;;;;16.80;85.30;100100.97;4857844;29;20033;-93
2021/07/06 03:13:13;;;;;;;9.35;6.53;;;;;;;16.80;85.43;100109.00;4855133;29;20450;-92
2021/07/06 03:15:43;;;;;;;11.27;6.45;;;;;;;16.85;85.47;100098.72;4855162;29;20045;-93
2021/07/06 03:18:12;;;;;;;9.82;6.30;;;;;;;16.86;85.11;100092.41;4841905;29;20037;-92
2021/07/06 03:20:48;;;;;;;10.45;6.50;;;;;;;16.90;84.78;100093.81;4856548;29;20053;-92
2021/07/06 03:23:19;;;;;;;9.60;6.20;;;;;;;16.93;84.51;100085.50;4839948;29;20091;-92
2021/07/06 03:25:48;;;;;;;11.10;6.72;;;;;;;16.98;84.55;100094.91;4855215;29;20434;-92
2021/07/06 03:28:22;;;;;;;9.32;6.85;;;;;;;17.02;84.51;100097.16;4840310;29;20042;-92
2021/07/06 03:31:10;;;;;;;7.55;6.30;;;;;;;17.02;84.10;100107.03;4857532;29;20030;-93
2021/07/06 03:33:36;;;;;;;6.97;5.65;;;;;;;17.06;83.76;100103.91;4872309;29;20516;-92
2021/07/06 03:36:03;;;;;;;5.78;4.82;;;;;;;17.01;83.58;100079.47;4857081;29;20093;-92
2021/07/06 03:38:28;;;;;;;9.18;5.90;;;;;;;17.04;83.85;100071.16;4839757;29;20045;-93
2021/07/06 03:40:54;;;;;;;8.30;5.50;;;;;;;17.05;84.08;100086.19;4841395;29;20033;-94
2021/07/06 03:43:20;;;;;;;5.88;4.65;;;;;;;17.02;84.46;100094.50;4839988;29;20486;-92
2021/07/06 03:45:47;;;;;;;6.07;5.15;;;;;;;17.05;84.23;100096.06;4846302;29;20045;-92
2021/07/06 03:48:14;;;;;;;6.38;5.68;;;;;;;17.07;84.35;100078.03;4858156;29;20029;-93
2021/07/06 03:50:43;;;;;;;4.65;4.25;;;;;;;17.11;84.32;100089.31;4839866;29;20049;-92
2021/07/06 03:53:11;;;;;;;6.32;5.68;;;;;;;17.08;84.39;100085.13;4825089;29;20033;-90
2021/07/06 03:55:40;;;;;;;8.63;6.35;;;;;;;17.13;84.52;100084.69;4824743;29;20184;-90
2021/07/06 03:58:06;;;;;;;6.85;4.68;;;;;;;17.10;84.44;100088.47;4854619;29;20105;-90
2021/07/06 04:00:32;;;;;;;5.25;4.75;;;;;;;17.16;84.35;100073.72;4825579;29;20030;-88
2021/07/06 04:02:57;;;;;;;7.47;5.43;;;;;;;17.13;84.52;100076.66;4847980;29;20026;-88
2021/07/06 04:05:25;;;;;;;5.93;5.38;;;;;;;17.16;84.47;100081.72;4848811;29;20046;-90
2021/07/06 04:07:53;;;;;;;6.63;5.25;;;;;;;17.17;84.28;100070.03;4869733;29;20058;-90
2021/07/06 04:10:19;;;;;;;5.10;4.38;;;;;;;17.17;84.38;100059.34;4864517;29;20045;-92
2021/07/06 04:12:47;;;;;;;5.20;4.68;;;;;;;17.16;84.12;100092.41;4862632;29;20505;-91
2021/07/06 04:15:16;;;;;;;4.75;3.80;;;;;;;17.14;84.02;100070.34;4860318;29;20035;-92
2021/07/06 04:17:42;;;;;;;7.70;4.78;;;;;;;17.21;83.38;100065.25;4872388;29;20096;-92
2021/07/06 04:20:11;;;;;;;7.97;4.10;;;;;;;17.26;83.10;100079.00;4873427;29;20029;-90
2021/07/06 04:22:37;;;;;;;5.03;4.22;;;;;;;17.28;83.02;100061.03;4872988;29;20053;-92
2021/07/06 04:25:04;;;;;;;7.32;4.30;;;;;;;17.33;82.97;100069.47;4854685;29;20072;-93
2021/07/06 04:27:30;;;;;;;6.78;4.53;;;;;;;17.36;82.70;100071.84;4866488;29;20040;-90
2021/07/06 04:29:55;;;;;;;5.63;4.60;;;;;;;17.41;82.71;100074.94;4845259;29;20032;-90
2021/07/06 04:34:49;;;;;;;7.27;4.30;;;;;;;17.43;82.73;100093.50;4912665;23;20130;-90
2021/07/06 04:37:17;;;;;;;5.43;4.43;;;;;;;17.40;82.61;100075.91;4874519;29;20304;-88
2021/07/06 04:39:42;;;;;;;4.75;4.35;;;;;;;17.41;83.05;100104.31;4858622;29;20032;-90
2021/07/06 04:42:16;;;;;;;4.95;4.15;;;;;;;17.38;82.93;100093.06;4889527;29;20045;-88
2021/07/06 04:44:45;;;;;;;5.35;3.90;;;;;;;17.42;82.56;100103.31;4912015;29;20032;-90
2021/07/06 04:47:10;;;;;;;4.75;3.80;;;;;;;17.38;82.55;100096.59;4884308;29;20031;-88
2021/07/06 04:49:37;;;;;;;5.60;3.60;;;;;;;17.44;82.14;100100.50;4904931;29;20091;-89
2021/07/06 04:52:04;;;;;;;4.47;3.00;;;;;;;17.50;81.38;100081.22;4890012;29;20515;-86
2021/07/06 04:54:29;;;;;;;5.25;2.83;;;;;;;17.60;80.54;100081.19;4886045;29;20028;-91
2021/07/06 04:59:28;;;;;;;4.22;2.70;;;;;;;17.64;80.51;100092.41;4916495;29;20048;-92
2021/07/06 05:01:54;;;;;;;2.90;2.60;;;;;;;17.60;80.86;100089.22;4886909;29;20059;-92
2021/07/06 05:04:22;;;;;;;5.28;2.97;;;;;;;17.65;80.58;100073.56;4887838;29;20028;-90
2021/07/06 05:06:48;;;;;;;3.25;2.50;;;;;;;17.70;80.11;100074.97;4863125;29;20060;-93
2021/07/06 05:09:15;;;;;;;5.40;2.95;;;;;;;17.74;80.31;100085.22;4860554;29;20440;-92
2021/07/06 05:11:44;;;;;;;6.72;3.05;;;;;;;17.80;80.17;100078.44;4877410;29;20077;-93
2021/07/06 05:14:09;;;;;;;4.88;3.80;;;;;;;17.81;80.01;100083.63;4877384;29;20029;-93
2021/07/06 05:16:38;;;;;;;4.40;3.10;;;;;;;17.85;80.16;100084.19;4876401;29;20096;-91
2021/07/06 05:19:05;;;;;;;5.93;3.80;;;;;;;17.87;80.43;100090.22;4876523;29;20123;-92
2021/07/06 05:21:35;;;;;;;4.60;2.80;;;;;;;17.93;79.89;100086.13;4849112;29;20039;-92
2021/07/06 05:24:03;;;;;;;6.15;2.80;;;;;;;17.95;80.03;100075.28;4893251;29;20040;-90
2021/07/06 05:26:29;;;;;;;3.88;2.70;;;;;;;18.04;79.47;100071.72;4877925;29;20123;-94
2021/07/06 05:28:57;;;;;;;2.53;2.33;;;;;;;18.11;78.69;100083.50;4863385;29;20043;-92
2021/07/06 05:31:23;;;;;;;3.28;2.25;;;;;;;18.19;78.20;100077.41;4880114;29;20040;-92
2021/07/06 05:33:48;;;;;;;4.78;2.63;;;;;;;18.24;78.02;100074.28;4862178;29;20024;-90
2021/07/06 05:36:18;;;;;;;2.70;2.30;;;;;;;18.28;77.79;100081.84;4854345;29;20089;-90
2021/07/06 05:38:44;;;;;;;3.72;2.63;;;;;;;18.35;77.73;100089.28;4888491;29;20057;-91
2021/07/06 05:41:09;;;;;;;3.10;2.85;;;;;;;18.42;77.81;100079.66;4888911;29;20080;-91
2021/07/06 05:43:36;;;;;;;3.47;2.53;;;;;;;18.35;77.51;100078.59;4889527;29;20049;-91
2021/07/06 05:46:04;;;;;;;4.70;2.47;;;;;;;18.45;77.38;100082.03;4882994;29;20041;-94
2021/07/06 05:48:31;;;;;;;3.22;2.63;;;;;;;18.38;77.43;100072.94;4877130;29;20041;-94
2021/07/06 05:50:58;;;;;;;5.45;2.90;;;;;;;18.46;77.20;100067.66;4875991;29;20452;-94
2021/07/06 05:53:25;;;;;;;5.47;2.70;;;;;;;18.49;76.31;100071.88;4859382;29;20028;-91
2021/07/06 05:55:50;;;;;;;5.70;2.80;;;;;;;18.59;76.76;100077.97;4875302;29;20072;-93
2021/07/06 05:58:16;;;;;;;5.53;3.03;;;;;;;18.46;77.29;100056.97;4873637;29;20445;-91
2021/07/06 06:00:42;;;;;;;3.33;2.90;;;;;;;18.55;77.08;100061.38;4858221;29;20080;-91
2021/07/06 06:03:09;;;;;;;4.50;3.15;;;;;;;18.57;77.32;100063.06;4874056;29;20059;-91
2021/07/06 06:05:36;;;;;;;5.68;3.20;;;;;;;18.57;77.34;100060.38;4874008;29;20450;-91
2021/07/06 06:08:02;;;;;;;3.33;3.03;;;;;;;18.58;76.76;100046.84;4858292;29;20040;-91
2021/07/06 06:10:27;;;;;;;5.32;3.58;;;;;;;18.58;77.17;100062.91;4873259;29;20086;-92
2021/07/06 06:12:54;;;;;;;3.53;3.15;;;;;;;18.57;77.42;100071.09;4858981;29;20029;-91
2021/07/06 06:15:21;;;;;;;4.00;3.28;;;;;;;18.65;77.29;100076.53;4890153;29;20033;-90
2021/07/06 06:17:47;;;;;;;5.60;2.97;;;;;;;18.60;77.51;100068.97;4858082;29;20036;-90
2021/07/06 06:20:13;;;;;;;6.28;3.53;;;;;;;18.53;77.94;100075.91;4873451;29;20051;-91
2021/07/06 06:22:38;;;;;;;3.95;3.53;;;;;;;18.48;78.00;100062.16;4873995;29;20115;-90
2021/07/06 06:25:06;;;;;;;5.22;3.95;;;;;;;18.62;78.04;100063.47;4888226;29;20108;-90
2021/07/06 06:27:33;;;;;;;4.47;3.72;;;;;;;18.53;77.88;100060.69;4874365;29;20061;-91
2021/07/06 06:29:58;;;;;;;4.95;3.63;;;;;;;18.73;76.61;100071.25;4888672;29;20020;-89
2021/07/06 06:32:24;;;;;;;5.22;3.67;;;;;;;18.73;76.32;100073.94;4887700;29;20033;-89
2021/07/06 06:34:51;;;;;;;4.03;2.75;;;;;;;18.82;75.03;100076.66;4887908;29;20119;-90
2021/07/06 06:37:16;;;;;;;4.75;2.70;;;;;;;18.71;73.50;100072.41;4857143;29;20108;-89
2021/07/06 06:39:42;;;;;;;5.18;2.45;;;;;;;18.74;72.81;100082.78;4876479;29;20024;-89
2021/07/06 06:42:08;;;;;;;4.13;2.47;;;;;;;18.59;72.30;100071.78;4918357;29;20104;-92
2021/07/06 06:44:33;;;;;;;4.30;1.88;;;;;;;18.63;70.32;100075.84;4905730;29;20361;-92
2021/07/06 06:47:02;;;;;;;2.53;1.50;;;;;;;18.61;68.98;100077.81;4872293;29;20037;-90
2021/07/06 06:49:27;;;;;;;4.95;1.55;;;;;;;18.52;69.22;100085.78;4887220;29;20029;-90
2021/07/06 06:51:53;;;;;;;3.85;1.30;;;;;;;18.48;69.16;100094.28;4871912;29;20029;-89
2021/07/06 06:54:18;;;;;;;4.10;1.50;;;;;;;18.39;67.93;100099.53;4889259;29;20036;-90
2021/07/06 06:56:44;;;;;;;2.03;1.40;;;;;;;18.34;67.37;100101.00;4857651;29;20035;-90
2021/07/06 06:59:10;;;;;;;4.43;1.67;;;;;;;18.41;67.23;100091.34;4850843;29;20053;-90
2021/07/06 07:01:37;;;;;;;4.60;1.50;;;;;;;18.37;66.43;100098.84;4866608;29;20044;-92
2021/07/06 07:04:05;;;;;;;6.00;1.70;;;;;;;18.46;66.68;100109.63;4869906;29;20025;-91
2021/07/06 07:06:31;;;;;;;3.67;1.52;;;;;;;18.40;66.91;100092.38;4871824;29;20092;-91
2021/07/06 07:08:57;;;;;;;6.22;1.60;;;;;;;18.46;67.05;100099.78;4871541;29;20032;-90
2021/07/06 07:11:22;;;;;;;5.40;1.58;;;;;;;18.40;67.74;100101.22;4842063;29;20085;-90
2021/07/06 07:13:48;;;;;;;2.10;1.33;;;;;;;18.35;66.51;100106.19;4872330;29;20084;-91
2021/07/06 07:16:14;;;;;;;3.42;1.42;;;;;;;18.24;66.76;100103.72;4904154;29;20039;-90
2021/07/06 07:18:39;;;;;;;3.55;1.60;;;;;;;18.14;66.01;100117.16;4872425;29;20080;-93
2021/07/06 07:21:05;;;;;;;5.10;1.50;;;;;;;18.11;65.41;100117.41;4857070;29;20392;-91
2021/07/06 07:23:30;;;;;;;4.85;1.10;;;;;;;17.93;64.98;100116.38;4873066;29;20476;-92
2021/07/06 07:25:56;;;;;;;3.72;1.08;;;;;;;18.05;65.24;100117.03;4841829;29;20469;-92
2021/07/06 07:28:21;;;;;;;7.65;2.00;;;;;;;18.25;65.11;100121.44;4886600;29;20025;-91
2021/07/06 07:30:47;;;;;;;4.20;1.50;;;;;;;18.26;63.95;100110.59;4868695;29;20025;-91
2021/07/06 07:33:12;;;;;;;5.10;1.25;;;;;;;18.33;63.89;100126.06;4853344;29;20379;-90
2021/07/06 07:35:38;;;;;;;7.05;1.48;;;;;;;18.44;62.89;100112.47;4867314;29;20404;-90
2021/07/06 07:38:03;;;;;;;4.25;1.30;;;;;;;18.68;63.28;100130.63;4886300;29;20429;-91
2021/07/06 07:40:29;;;;;;;7.20;2.00;;;;;;;18.73;62.79;100129.31;4886851;29;20043;-91
2021/07/06 07:42:54;;;;;;;5.78;1.85;;;;;;;18.82;62.22;100124.88;4856733;29;20025;-91
2021/07/06 07:45:20;;;;;;;2.28;1.20;;;;;;;19.08;61.95;100132.97;4878864;29;20020;-91
2021/07/06 07:47:46;;;;;;;3.70;1.40;;;;;;;19.26;62.54;100124.97;4873415;29;20020;-91
2021/07/06 07:50:12;;;;;;;5.50;1.90;;;;;;;19.42;62.27;100126.88;4872353;29;20415;-90
2021/07/06 07:52:37;;;;;;;13.02;3.50;;;;;;;19.27;61.18;100117.75;4888234;29;20120;-91
2021/07/06 07:55:06;;;;;;;3.20;1.60;;;;;;;19.16;61.74;100126.88;4857427;29;20032;-92
2021/07/06 07:57:32;;;;;;;30.83;7.88;;;;;;;19.49;62.15;100119.06;4888516;29;20067;-90
2021/07/06 07:59:58;;;;;;;7.10;2.30;;;;;;;19.63;61.43;100106.06;4880079;29;20426;-92
2021/07/06 08:02:23;;;;;;;6.78;1.88;;;;;;;19.90;61.34;100122.97;4835644;29;20033;-91
2021/07/06 08:04:49;;;;;;;4.78;1.60;;;;;;;19.67;59.56;100119.00;4869304;29;20052;-91
2021/07/06 08:07:14;;;;;;;5.43;1.48;;;;;;;19.67;58.67;100124.34;4861261;29;20080;-91
2021/07/06 08:09:40;;;;;;;4.05;1.52;;;;;;;19.65;58.76;100136.25;4881668;29;20032;-93
2021/07/06 08:12:06;;;;;;;3.28;1.40;;;;;;;19.89;57.46;100134.72;4890799;29;20030;-92
2021/07/06 08:14:35;;;;;;;7.00;1.88;;;;;;;19.79;57.07;100122.25;4849034;29;20052;-91
2021/07/06 08:17:01;;;;;;;3.35;1.55;;;;;;;19.67;57.23;100126.22;4853396;29;20040;-90
2021/07/06 08:19:27;;;;;;;4.80;1.52;;;;;;;20.12;56.86;100128.78;4851547;29;20097;-92
2021/07/06 08:21:52;;;;;;;4.93;1.60;;;;;;;20.42;55.84;100135.47;4854714;29;20496;-91
2021/07/06 08:24:18;;;;;;;2.95;1.42;;;;;;;20.55;55.17;100136.84;4870227;29;20029;-92
2021/07/06 08:26:45;;;;;;;2.30;1.38;;;;;;;20.65;53.84;100139.34;4866398;29;20020;-91
2021/07/06 08:29:11;;;;;;;6.93;1.40;;;;;;;20.69;53.67;100134.50;4876018;29;20088;-92
2021/07/06 08:31:36;;;;;;;3.22;1.50;;;;;;;20.94;53.70;100146.16;4898437;29;20056;-91
2021/07/06 08:34:04;;;;;;;3.47;1.40;;;;;;;20.85;52.31;100139.88;4883256;24;20061;-92
2021/07/06 08:36:32;;;;;;;2.15;1.40;;;;;;;21.49;51.14;100149.16;4867125;29;20094;-89
2021/07/06 08:39:02;;;;;;;7.80;1.67;;;;;;;22.20;50.08;100136.00;4884368;29;20103;-90
2021/07/06 08:41:27;;;;;;;4.00;1.35;;;;;;;23.09;47.18;100140.19;4868624;29;20033;-89
2021/07/06 08:43:53;;;;;;;3.80;1.45;;;;;;;23.50;47.10;100140.84;4867920;29;20100;-88
2021/07/06 08:46:20;;;;;;;4.75;1.30;;;;;;;24.57;44.50;100145.16;4867642;29;20125;-89
2021/07/06 08:48:47;;;;;;;4.72;1.63;;;;;;;24.20;45.01;100148.69;4867182;29;20093;-90
2021/07/06 08:51:14;;;;;;;10.73;1.55;;;;;;;24.42;44.98;100142.47;4854911;29;20508;-90
2021/07/06 08:53:39;;;;;;;19.52;5.43;;;;;;;25.45;43.04;100143.25;4885967;29;20032;-89
2021/07/06 08:56:06;;;;;;;8.90;3.47;;;;;;;24.30;43.59;100142.16;4867784;29;20029;-89
2021/07/06 08:58:31;;;;;;;7.90;2.30;;;;;;;24.39;43.41;100149.09;4884055;29;20028;-90
2021/07/06 09:00:58;;;;;;;4.97;1.63;;;;;;;22.68;47.04;100157.50;4889639;29;20396;-89
2021/07/06 09:03:24;;;;;;;4.93;1.35;;;;;;;21.79;49.89;100154.00;4886846;29;20033;-89
2021/07/06 09:06:01;;;;;;;9.20;2.00;;;;;;;20.96;51.81;100152.19;4890288;29;20077;-89
2021/07/06 09:08:28;;;;;;;8.95;2.97;;;;;;;20.87;52.50;100164.75;4855784;29;20053;-90
2021/07/06 09:10:57;;;;;;;9.30;3.05;;;;;;;20.76;52.98;100147.09;4854765;29;20045;-90
2021/07/06 09:13:34;;;;;;;6.50;2.10;;;;;;;20.18;52.91;100138.88;4870307;29;20532;-91
2021/07/06 09:16:02;;;;;;;3.10;1.45;;;;;;;20.34;53.03;100158.75;4836376;29;20065;-90
2021/07/06 09:18:38;;;;;;;9.90;3.13;;;;;;;20.52;53.00;100167.53;4836387;29;20497;-90
2021/07/06 09:21:08;;;;;;;8.50;2.75;;;;;;;21.82;49.52;100155.50;4837047;29;20428;-89
2021/07/06 09:23:39;;;;;;;13.10;3.03;;;;;;;22.88;48.01;100163.25;4836383;29;20048;-90
2021/07/06 09:26:12;;;;;;;14.80;3.70;;;;;;;22.78;46.04;100154.56;4869590;29;20037;-90
2021/07/06 09:28:40;;;;;;;;;;;;;;;23.23;44.84;100162.81;4870424;29;20088;-90
2021/07/06 09:31:19;;;;;;;10.50;2.60;;;;;;;23.98;44.48;100170.19;4869892;29;19932;-92
2021/07/06 09:34:02;;;;;;;5.80;1.70;;;;;;;23.49;42.89;100169.69;4886842;29;20056;-93
2021/07/06 09:36:37;;;;;;;8.13;1.92;;;;;;;21.90;46.65;100174.31;4870182;29;20408;-92
2021/07/06 09:39:20;;;;;;;6.85;2.25;;;;;;;21.51;49.35;100176.69;4869816;29;20057;-90
2021/07/06 09:41:54;;;;;;;5.78;1.42;;;;;;;21.25;49.53;100176.88;4885886;29;20044;-93
2021/07/06 09:44:24;;;;;;;5.53;1.73;;;;;;;20.59;50.72;100180.28;4854701;29;20504;-90
2021/07/06 09:46:57;;;;;;;7.75;1.73;;;;;;;20.61;51.25;100191.72;4887189;29;20040;-89
2021/07/06 09:49:39;;;;;;;5.57;1.60;;;;;;;20.60;48.61;100168.56;4856008;29;20548;-91
2021/07/06 09:52:13;;;;;;;5.10;1.63;;;;;;;20.87;48.08;100180.00;4857026;29;20119;-91
2021/07/06 09:54:44;;;;;;;6.63;1.70;;;;;;;21.45;47.78;100190.81;4855162;29;20446;-91
2021/07/06 09:57:19;;;;;;;7.82;1.95;;;;;;;21.44;47.72;100185.63;4871337;29;20025;-93
2021/07/06 09:59:55;;;;;;;10.60;2.30;;;;;;;21.15;47.85;100194.03;4871479;29;20036;-92
2021/07/06 10:02:21;;;;;;;8.38;1.90;;;;;;;21.11;48.20;100207.97;4859682;29;20029;-93
2021/07/06 10:04:50;;;;;;;6.43;1.70;;;;;;;20.96;48.08;100195.16;4844481;29;20055;-92
2021/07/06 10:07:22;;;;;;;10.57;2.20;;;;;;;20.76;47.81;100187.41;4845377;29;20385;-91
2021/07/06 10:09:53;;;;;;;8.85;1.85;;;;;;;20.54;48.48;100205.81;4867745;29;20041;-89
2021/07/06 10:12:19;;;;;;;10.00;1.75;;;;;;;20.46;49.02;100213.00;4869529;29;20472;-88
2021/07/06 10:14:47;;;;;;;16.98;3.58;;;;;;;20.39;49.68;100204.75;4837910;29;20116;-89
2021/07/06 10:17:14;;;;;;;8.73;2.13;;;;;;;20.53;49.59;100227.44;4868486;29;20051;-91
2021/07/06 10:19:44;;;;;;;6.25;1.52;;;;;;;20.46;50.07;100221.88;4881721;29;20032;-91
2021/07/06 10:22:19;;;;;;;5.35;1.70;;;;;;;20.58;49.14;100209.00;4879659;29;20102;-92
2021/07/06 10:24:46;;;;;;;6.60;1.38;;;;;;;20.45;49.52;100209.47;4865304;29;20037;-93
2021/07/06 10:27:25;;;;;;;8.43;1.70;;;;;;;20.27;49.93;100223.81;4863095;29;20048;-90
2021/07/06 10:30:19;;;;;;;5.05;1.42;;;;;;;20.34;50.41;100217.81;4879795;29;20029;-92
2021/07/06 10:32:55;;;;;;;4.50;1.42;;;;;;;20.74;49.88;100210.06;4859352;29;20053;-92
2021/07/06 10:35:59;;;;;;;5.35;1.55;;;;;;;21.46;48.53;100211.34;4873173;29;20045;-92
2021/07/06 10:38:28;;;;;;;8.30;1.85;;;;;;;22.09;47.00;100218.81;4814186;29;20510;-95
2021/07/06 10:41:15;;;;;;;5.32;1.52;;;;;;;21.51;47.86;100214.34;4806852;29;20124;-92
2021/07/06 10:43:43;;;;;;;8.30;1.55;;;;;;;21.32;48.47;100202.09;4791253;29;20076;-94
2021/07/06 10:46:21;;;;;;;4.72;1.30;;;;;;;20.60;49.60;100231.16;4806788;29;20043;-92
2021/07/06 10:48:54;;;;;;;6.18;1.65;;;;;;;20.23;50.29;100217.09;4791834;29;20043;-91
2021/07/06 10:51:37;;;;;;;9.20;1.52;;;;;;;20.19;51.25;100228.31;4805966;29;20038;-91
2021/07/06 10:54:15;;;;;;;6.32;1.40;;;;;;;20.64;51.02;100213.72;4806529;29;20055;-91
2021/07/06 10:56:44;;;;;;;4.13;1.60;;;;;;;21.27;49.44;100226.78;4791686;29;20050;-92
2021/07/06 10:59:30;;;;;;;8.88;1.67;;;;;;;21.39;49.07;100215.69;4807246;29;20049;-91
2021/07/06 11:02:11;;;;;;;5.78;1.20;;;;;;;21.04;49.46;100208.63;4799987;29;20070;-90
2021/07/06 11:04:43;;;;;;;5.30;1.30;;;;;;;20.94;49.60;100216.00;4809655;29;20046;-94
2021/07/06 11:07:12;;;;;;;6.60;1.83;;;;;;;20.73;50.33;100230.69;4812767;29;20121;-93
2021/07/06 11:09:37;;;;;;;6.15;1.40;;;;;;;20.32;50.37;100219.81;4808754;29;20098;-93
2021/07/06 11:12:18;;;;;;;4.47;1.25;;;;;;;20.66;51.19;100222.44;4838862;29;20080;-92
2021/07/06 11:14:48;;;;;;;14.30;1.50;;;;;;;20.92;50.46;100236.81;4852679;29;20041;-91
2021/07/06 11:17:16;;;;;;;3.40;1.45;;;;;;;21.19;50.02;100220.56;4854458;29;20084;-93
2021/07/06 11:19:42;;;;;;;4.22;1.60;;;;;;;21.37;48.39;100237.38;4865970;29;20101;-91
2021/07/06 11:22:14;;;;;;;11.13;1.67;;;;;;;21.33;48.38;100221.75;4854199;29;20238;-91
2021/07/06 11:24:48;;;;;;;9.82;1.90;;;;;;;21.49;48.89;100237.91;4860264;29;20037;-92
2021/07/06 11:27:32;;;;;;;8.57;1.90;;;;;;;20.97;50.07;100244.41;4852196;29;20044;-92
2021/07/06 11:29:58;;;;;;;5.63;1.65;;;;;;;20.64;50.79;100243.28;4865480;29;20037;-95
2021/07/06 11:32:23;;;;;;;7.97;1.50;;;;;;;20.44;50.71;100244.53;4864962;29;20389;-93
2021/07/06 11:34:49;;;;;;;8.43;1.42;;;;;;;20.51;50.46;100235.66;4839194;29;20139;-93
2021/07/06 11:37:15;;;;;;;7.40;1.50;;;;;;;20.66;50.58;100243.13;4852461;29;20036;-92
2021/07/06 11:39:41;;;;;;;9.43;1.50;;;;;;;20.90;50.15;100241.47;4856476;29;20029;-91
2021/07/06 11:42:06;;;;;;;6.57;1.50;;;;;;;20.74;50.36;100237.75;4868209;29;20056;-93
2021/07/06 11:44:32;;;;;;;5.70;1.52;;;;;;;20.53;50.46;100240.88;4839502;29;20025;-93
2021/07/06 11:47:14;;;;;;;5.68;2.00;;;;;;;20.24;51.32;100250.97;4860192;29;20120;-94
2021/07/06 11:49:41;;;;;;;8.10;1.98;;;;;;;20.26;49.80;100251.66;4826177;29;20133;-95
2021/07/06 11:52:07;;;;;;;6.82;1.60;;;;;;;20.60;49.83;100231.16;4876796;29;20029;-93
2021/07/06 11:54:32;;;;;;;4.28;1.50;;;;;;;20.33;49.88;100245.66;4873262;29;20033;-92
2021/07/06 11:57:07;;;;;;;10.50;1.80;;;;;;;20.15;50.53;100247.41;4845089;29;20104;-94
2021/07/06 11:59:33;;;;;;;5.20;1.30;;;;;;;20.01;51.43;100261.38;4861290;29;20085;-93